Time;durP1;ratioP1;P1;durP2;ratioP2;P2;SDS_P1;SDS_P2;PMS_P1;PMS_P2;Temp;Humidity;BMP_temperature;BMP_pressure;BME280_temperature;BME280_humidity;BME280_pressure;Samples;Min_cycle;Max_cycle;Signal;HPM_P1;HPM_P2
2022/05/17 00:01:43;;;;;;;3.00;1.93;;;17.30;1.40;;;17.46;43.25;101150.97;5021952;28;20436;-73
2022/05/17 00:04:12;;;;;;;3.73;2.07;;;17.30;1.60;;;17.42;43.45;101146.22;5020084;28;20426;-74
2022/05/17 00:06:41;;;;;;;2.33;1.60;;;17.30;1.60;;;17.42;43.33;101149.78;5013716;28;20798;-73
2022/05/17 00:09:11;;;;;;;5.57;2.17;;;17.30;1.60;;;17.38;43.56;101140.38;5019597;28;20468;-73
2022/05/17 00:11:41;;;;;;;11.93;2.40;;;17.20;1.40;;;17.36;43.49;101143.38;5018041;28;20455;-73
2022/05/17 00:14:11;;;;;;;2.50;1.70;;;17.20;1.60;;;17.39;43.68;101139.31;5026036;28;20414;-73
2022/05/17 00:16:42;;;;;;;3.87;1.60;;;17.20;1.90;;;17.35;43.76;101138.13;5020982;28;20442;-73
2022/05/17 00:19:17;;;;;;;5.00;2.00;;;17.20;2.10;;;17.35;43.82;101138.97;5014214;28;20841;-74
2022/05/17 00:21:46;;;;;;;2.30;1.67;;;17.10;2.20;;;17.41;43.62;101142.63;5023382;28;20430;-73
2022/05/17 00:24:19;;;;;;;7.03;2.80;;;17.20;2.60;;;17.39;43.79;101142.03;5035917;28;20439;-73
2022/05/17 00:26:48;;;;;;;3.17;1.87;;;17.20;2.30;;;17.35;43.92;101138.97;5015636;28;20802;-74
2022/05/17 00:29:19;;;;;;;2.03;1.37;;;17.20;2.40;;;17.45;43.67;101138.34;5023112;28;20959;-73
2022/05/17 00:31:48;;;;;;;2.97;1.63;;;17.30;2.20;;;17.34;43.94;101136.47;5017179;28;20988;-74
2022/05/17 00:34:17;;;;;;;2.77;1.80;;;17.20;2.30;;;17.35;44.05;101136.22;5010681;28;20450;-73
2022/05/17 00:36:46;;;;;;;5.43;2.20;;;17.20;2.80;;;17.34;44.11;101140.03;5022882;28;20483;-73
2022/05/17 00:39:15;;;;;;;2.60;2.40;;;17.20;2.60;;;17.31;44.23;101137.78;5040712;28;20457;-73
2022/05/17 00:41:44;;;;;;;4.50;2.60;;;17.20;3.20;;;17.38;43.99;101141.19;5008154;28;20448;-73
2022/05/17 00:47:06;;;;;;;3.20;2.30;;;17.10;3.50;;;17.19;46.01;101138.84;5023042;28;20448;-74
2022/05/17 00:49:41;;;;;;;3.90;2.47;;;17.10;4.60;;;17.10;46.59;101134.81;5021957;28;20834;-72
2022/05/17 00:52:17;;;;;;;3.60;2.13;;;17.00;5.20;;;17.02;48.07;101137.94;5021307;28;20506;-72
2022/05/17 00:54:48;;;;;;;4.30;1.93;;;16.90;6.50;;;16.83;48.53;101139.97;5011921;28;20414;-72
2022/05/17 00:57:28;;;;;;;4.50;2.43;;;16.80;7.10;;;16.86;48.15;101137.56;5023378;28;20976;-73
2022/05/17 01:00:03;;;;;;;3.73;2.07;;;16.80;6.80;;;16.80;48.68;101145.88;5040043;28;20463;-73
2022/05/17 01:02:34;;;;;;;5.33;2.10;;;16.70;8.40;;;16.70;49.71;101130.06;5015994;28;20410;-74
2022/05/17 01:05:06;;;;;;;2.17;1.63;;;16.60;9.90;;;16.78;48.39;101137.09;5015842;28;20483;-74
2022/05/17 01:07:43;;;;;;;3.80;2.80;;;16.70;9.20;;;16.77;48.75;101135.44;5007899;28;20433;-74
2022/05/17 01:10:13;;;;;;;5.70;1.70;;;16.60;10.60;;;16.80;48.18;101138.53;5015121;28;20443;-73
2022/05/17 01:12:43;;;;;;;3.13;2.40;;;16.60;9.20;;;16.79;48.72;101139.63;5010487;28;20419;-73
2022/05/17 01:15:12;;;;;;;4.27;2.50;;;16.70;10.20;;;16.71;48.91;101130.91;5017815;28;20435;-73
2022/05/17 01:17:42;;;;;;;3.37;1.93;;;16.60;10.70;;;16.73;49.13;101128.78;5029448;28;20479;-74
2022/05/17 01:20:14;;;;;;;5.23;2.67;;;16.60;7.80;;;16.73;49.67;101134.25;5017324;28;20442;-74
2022/05/17 01:22:45;;;;;;;4.80;2.83;;;16.60;11.70;;;16.80;48.95;101134.94;5032907;28;20450;-74
2022/05/17 01:25:14;;;;;;;4.40;2.60;;;16.70;8.20;;;16.79;49.22;101127.84;5025241;28;20983;-74
2022/05/17 01:27:51;;;;;;;5.67;2.60;;;16.70;10.20;;;16.72;49.68;101133.41;5011135;28;20629;-73
2022/05/17 01:30:25;;;;;;;4.80;2.57;;;16.60;10.60;;;16.64;49.66;101147.44;5012243;28;20472;-74
2022/05/17 01:32:54;;;;;;;6.47;2.60;;;16.60;11.40;;;16.51;50.67;101142.97;5007072;28;20408;-74
2022/05/17 01:35:24;;;;;;;3.83;2.57;;;16.40;12.30;;;16.40;51.29;101142.97;5011478;28;20439;-74
2022/05/17 01:37:56;;;;;;;2.13;1.87;;;16.30;11.00;;;16.36;51.10;101139.06;5045495;28;20457;-74
2022/05/17 01:40:27;;;;;;;2.40;2.20;;;16.30;12.90;;;16.29;51.91;101138.31;5028350;28;20833;-73
2022/05/17 01:42:56;;;;;;;4.23;2.07;;;16.20;14.80;;;16.16;56.00;101149.44;5029638;28;20444;-73
2022/05/17 01:45:25;;;;;;;3.30;2.33;;;16.00;20.20;;;16.04;55.25;101139.31;5013288;28;20533;-73
2022/05/17 01:47:55;;;;;;;3.07;2.40;;;16.00;18.30;;;16.02;54.04;101144.16;5024248;28;20451;-73
2022/05/17 01:50:24;;;;;;;3.00;2.60;;;16.00;16.40;;;15.98;53.69;101140.22;5028928;28;20446;-74
2022/05/17 01:52:55;;;;;;;4.47;2.70;;;15.90;16.50;;;15.93;53.21;101148.28;5038267;28;20486;-74
2022/05/17 01:55:24;;;;;;;4.13;2.00;;;15.80;17.20;;;15.94;55.64;101152.66;5015651;28;20492;-74
2022/05/17 01:57:53;;;;;;;4.73;2.43;;;15.90;22.40;;;16.00;53.96;101161.84;5023239;28;20508;-74
2022/05/17 02:00:24;;;;;;;4.50;2.67;;;15.90;21.90;;;16.14;55.04;101167.94;5034426;28;20484;-74
2022/05/17 02:02:53;;;;;;;3.07;2.13;;;16.00;23.00;;;16.06;55.33;101167.22;5033162;28;20917;-74
2022/05/17 02:05:25;;;;;;;8.17;2.40;;;16.00;23.30;;;16.06;54.92;101180.88;5014689;28;20416;-74
2022/05/17 02:07:56;;;;;;;3.30;2.17;;;16.00;23.50;;;16.17;56.57;101178.41;5018582;28;20445;-74
2022/05/17 02:10:25;;;;;;;3.37;2.20;;;16.10;26.10;;;16.03;57.28;101183.19;5017058;28;20469;-74
2022/05/17 02:12:57;;;;;;;4.20;2.57;;;16.00;27.30;;;15.91;56.91;101185.06;5035447;28;20451;-74
2022/05/17 02:15:27;;;;;;;2.27;2.03;;;15.90;28.50;;;15.81;58.56;101180.16;5017394;28;20430;-73
2022/05/17 02:17:57;;;;;;;2.77;2.43;;;15.80;31.80;;;15.75;61.81;101181.06;5014440;28;20473;-75
2022/05/17 02:20:26;;;;;;;5.30;2.80;;;15.70;56.10;;;15.64;62.40;101173.63;5025353;28;20443;-74
2022/05/17 02:23:00;;;;;;;4.37;2.77;;;15.60;84.90;;;15.52;64.75;101175.47;5017526;28;20463;-74
2022/05/17 02:25:29;;;;;;;6.07;2.67;;;15.40;99.90;;;15.40;67.54;101178.06;5013034;28;20967;-75
2022/05/17 02:28:03;;;;;;;15.60;3.20;;;15.40;99.90;;;15.36;66.99;101189.66;5002986;28;20552;-74
2022/05/17 02:30:33;;;;;;;2.83;2.53;;;15.40;99.90;;;15.36;65.04;101181.50;5020544;28;20473;-74
2022/05/17 02:33:01;;;;;;;6.60;2.30;;;15.30;99.90;;;15.32;65.95;101181.13;5021424;28;20436;-73
2022/05/17 02:35:30;;;;;;;4.10;2.43;;;15.20;99.90;;;15.27;69.54;101180.97;5022503;28;20404;-73
2022/05/17 02:38:01;;;;;;;4.30;3.13;;;15.30;99.90;;;15.32;68.68;101193.91;5021740;28;20438;-75
2022/05/17 02:40:31;;;;;;;9.83;3.00;;;15.30;99.90;;;15.16;68.16;101185.25;5019252;28;20847;-75
2022/05/17 02:43:00;;;;;;;4.60;3.40;;;15.20;99.90;;;15.12;69.10;101192.22;5011900;28;20460;-74
2022/05/17 02:45:30;;;;;;;2.90;2.10;;;15.10;99.90;;;15.00;67.79;101194.03;5004811;28;20461;-73
2022/05/17 02:47:59;;;;;;;6.33;3.20;;;15.00;99.90;;;14.95;69.34;101196.59;5022695;28;20450;-73
2022/05/17 02:50:28;;;;;;;4.90;2.80;;;14.90;99.90;;;14.98;71.28;101201.59;5022193;28;20885;-74
2022/05/17 02:52:58;;;;;;;3.50;3.20;;;14.90;99.90;;;14.96;70.08;101203.69;5004187;28;21009;-74
2022/05/17 02:55:28;;;;;;;4.40;2.83;;;14.90;99.90;;;14.94;71.78;101205.81;5022494;28;20911;-74
2022/05/17 02:57:58;;;;;;;7.97;3.30;;;14.90;99.90;;;14.96;71.41;101203.69;5011632;28;20479;-74
2022/05/17 03:00:28;;;;;;;5.00;3.13;;;14.90;99.90;;;14.91;73.67;101216.34;5023457;28;20547;-74
2022/05/17 03:02:57;;;;;;;4.50;2.70;;;14.80;99.90;;;14.83;72.94;101214.72;5027766;28;20470;-75
2022/05/17 03:05:27;;;;;;;5.37;3.63;;;14.80;99.90;;;14.81;72.42;101218.72;5016923;28;20419;-75
2022/05/17 03:07:56;;;;;;;3.90;2.87;;;14.80;99.90;;;14.79;72.93;101229.84;5024510;28;20441;-75
2022/05/17 03:10:25;;;;;;;4.63;3.17;;;14.70;99.90;;;14.86;71.85;101235.25;5033280;28;20548;-75
2022/05/17 03:12:55;;;;;;;3.37;2.90;;;14.70;99.90;;;14.79;73.57;101240.75;5014236;28;20445;-75
2022/05/17 03:15:25;;;;;;;3.00;2.77;;;14.60;99.90;;;14.78;74.48;101241.78;5013998;28;20723;-75
2022/05/17 03:17:54;;;;;;;4.70;3.10;;;14.60;99.90;;;14.66;75.66;101247.13;5016133;28;20552;-75
2022/05/17 03:20:23;;;;;;;7.90;3.47;;;14.60;99.90;;;14.75;74.76;101253.97;5014441;28;20864;-76
2022/05/17 03:22:53;;;;;;;7.53;4.90;;;14.60;99.90;;;14.74;75.74;101251.47;5027246;28;20874;-74
2022/05/17 03:25:23;;;;;;;7.20;3.07;;;14.60;99.90;;;14.79;77.70;101257.09;5045760;28;20418;-75
2022/05/17 03:27:56;;;;;;;4.37;3.87;;;14.60;99.90;;;14.75;75.66;101261.31;5037662;28;20495;-75
2022/05/17 03:30:26;;;;;;;5.10;3.57;;;14.60;99.90;;;14.66;75.80;101273.53;5041413;28;20566;-75
2022/05/17 03:32:57;;;;;;;3.63;3.10;;;14.60;99.90;;;14.59;76.44;101275.44;5051825;28;20448;-76
2022/05/17 03:35:31;;;;;;;4.40;3.87;;;14.50;99.90;;;14.65;77.67;101277.31;5039060;28;20435;-75
2022/05/17 03:38:00;;;;;;;5.03;4.07;;;14.60;99.90;;;14.84;78.23;101280.94;5046799;28;20480;-76
2022/05/17 03:40:29;;;;;;;4.83;3.37;;;14.70;99.90;;;14.63;76.26;101284.84;5044855;28;20454;-75
2022/05/17 03:43:00;;;;;;;6.30;4.23;;;14.50;99.90;;;14.59;77.06;101287.19;5056244;28;20508;-75
2022/05/17 03:45:30;;;;;;;5.20;3.77;;;14.50;99.90;;;14.46;75.62;101289.16;5037148;28;20499;-76
2022/05/17 03:47:59;;;;;;;5.10;3.47;;;14.40;99.90;;;14.45;76.73;101303.81;5032484;28;20460;-75
2022/05/17 03:50:28;;;;;;;7.30;4.50;;;14.40;99.90;;;14.30;76.71;101301.34;5026011;28;20473;-75
2022/05/17 03:52:57;;;;;;;4.00;3.60;;;14.30;99.90;;;14.22;77.90;101305.16;5057132;28;20441;-75
2022/05/17 03:55:26;;;;;;;4.40;3.27;;;14.10;99.90;;;14.12;77.95;101309.38;5025584;28;20472;-74
2022/05/17 03:57:55;;;;;;;9.10;4.67;;;14.10;99.90;;;14.10;78.00;101309.59;5059144;28;20502;-75
2022/05/17 04:00:26;;;;;;;6.07;4.07;;;14.10;99.90;;;14.09;77.28;101315.25;5037308;28;20461;-76
2022/05/17 04:02:55;;;;;;;4.13;3.33;;;14.00;99.90;;;14.06;77.59;101321.97;5047129;28;20454;-75
2022/05/17 04:05:24;;;;;;;8.40;4.43;;;14.00;99.90;;;14.09;78.32;101329.69;5039954;28;20536;-74
2022/05/17 04:07:55;;;;;;;6.13;4.50;;;14.00;99.90;;;13.98;77.36;101321.38;5042673;28;20418;-75
2022/05/17 04:10:25;;;;;;;6.40;4.33;;;13.90;99.90;;;13.90;77.35;101327.84;5013416;28;20539;-75
2022/05/17 04:12:54;;;;;;;4.20;3.67;;;13.90;99.90;;;13.72;76.43;101330.41;5016557;28;20769;-75
2022/05/17 04:15:25;;;;;;;4.93;3.93;;;13.70;99.90;;;13.74;76.96;101329.19;5020984;28;20536;-74
2022/05/17 04:17:54;;;;;;;8.47;4.47;;;13.60;99.90;;;13.73;77.27;101321.22;5016052;28;20850;-75
2022/05/17 04:20:26;;;;;;;11.73;4.67;;;13.60;99.90;;;13.66;77.45;101328.53;5009552;28;20499;-74
2022/05/17 04:22:55;;;;;;;5.30;3.33;;;13.60;99.90;;;13.64;77.50;101336.09;5016113;28;20463;-74
2022/05/17 04:25:27;;;;;;;5.63;3.67;;;13.50;99.90;;;13.82;76.91;101325.38;5015918;28;20465;-74
2022/05/17 04:27:57;;;;;;;4.40;3.30;;;13.60;99.90;;;13.86;77.40;101329.34;5024337;28;20436;-75
2022/05/17 04:30:27;;;;;;;6.57;4.33;;;13.70;99.90;;;13.78;77.75;101324.13;5011425;28;20985;-75
2022/05/17 04:32:56;;;;;;;3.57;3.23;;;13.70;99.90;;;13.75;77.90;101333.53;5019344;28;20441;-74
2022/05/17 04:35:25;;;;;;;7.17;4.30;;;13.60;99.90;;;13.81;76.88;101326.44;5019986;28;20528;-74
2022/05/17 04:37:55;;;;;;;7.73;4.03;;;13.70;99.90;;;13.58;77.30;101320.63;5001331;28;20440;-75
2022/05/17 04:40:24;;;;;;;4.50;3.10;;;13.50;99.90;;;13.56;77.20;101315.38;5010489;28;20526;-74
2022/05/17 04:42:56;;;;;;;8.13;4.23;;;13.50;99.90;;;13.60;76.99;101315.81;5001173;28;20951;-74
2022/05/17 04:45:28;;;;;;;3.70;3.07;;;13.50;99.90;;;13.61;76.83;101312.03;5042304;28;20879;-74
2022/05/17 04:47:57;;;;;;;5.10;4.00;;;13.50;99.90;;;13.56;76.96;101314.53;5017225;28;20946;-74
2022/05/17 04:50:26;;;;;;;8.10;4.20;;;13.40;99.90;;;13.55;76.22;101302.84;5012748;28;20808;-74
2022/05/17 04:52:55;;;;;;;3.97;3.00;;;13.40;99.90;;;13.58;78.69;101312.47;5012623;28;20967;-74
2022/05/17 04:55:25;;;;;;;6.50;3.60;;;13.40;99.90;;;13.58;78.59;101315.19;5016826;28;20858;-74
2022/05/17 04:57:54;;;;;;;7.10;4.30;;;13.40;99.90;;;13.62;79.58;101309.09;5018740;28;20461;-74
2022/05/17 05:00:28;;;;;;;4.60;4.13;;;13.40;99.90;;;13.57;81.14;101310.78;5028874;28;20790;-74
2022/05/17 05:02:57;;;;;;;7.70;4.27;;;13.40;99.90;;;13.59;80.85;101308.69;5011216;28;20873;-74
2022/05/17 05:05:33;;;;;;;7.20;4.77;;;13.40;99.90;;;13.60;81.55;101311.22;5021513;28;20436;-74
2022/05/17 05:08:02;;;;;;;8.70;4.37;;;13.50;99.90;;;13.61;81.91;101307.44;5007887;28;20451;-74
2022/05/17 05:10:31;;;;;;;4.93;3.13;;;13.50;99.90;;;13.51;82.32;101307.03;5024038;28;20982;-76
2022/05/17 05:13:00;;;;;;;6.60;5.17;;;13.40;99.90;;;13.67;82.47;101306.59;5021064;28;20502;-75
2022/05/17 05:15:31;;;;;;;7.10;4.10;;;13.50;99.90;;;13.77;80.18;101306.97;5026713;28;20447;-74
2022/05/17 05:18:00;;;;;;;5.03;4.53;;;13.60;99.90;;;13.63;81.16;101290.91;5029887;28;20471;-76
2022/05/17 05:20:32;;;;;;;4.77;4.27;;;13.50;99.90;;;13.80;79.32;101300.25;5011510;28;20877;-75
2022/05/17 05:23:02;;;;;;;7.20;4.10;;;13.50;99.90;;;13.83;81.19;101306.13;5013965;28;20451;-75
2022/05/17 05:25:31;;;;;;;10.97;4.87;;;13.60;99.90;;;13.71;81.71;101307.81;5008752;28;20468;-74
2022/05/17 05:28:01;;;;;;;7.30;4.63;;;13.50;99.90;;;13.68;81.93;101308.25;5015159;28;20429;-75
2022/05/17 05:30:32;;;;;;;6.00;5.23;;;13.50;99.90;;;13.65;82.16;101308.66;5030374;28;20465;-75
2022/05/17 05:33:02;;;;;;;7.30;4.33;;;13.50;99.90;;;13.66;82.83;101309.50;5028736;28;21004;-75
2022/05/17 05:35:32;;;;;;;5.63;5.10;;;13.50;99.90;;;13.89;80.63;101304.44;5020931;28;20897;-75
2022/05/17 05:38:04;;;;;;;5.97;4.40;;;13.60;99.90;;;13.92;81.59;101304.00;5029222;22;20587;-69
2022/05/17 05:40:33;;;;;;;7.37;5.70;;;13.60;99.90;;;13.92;82.35;101309.44;5007031;28;20433;-68
2022/05/17 05:43:02;;;;;;;8.93;5.40;;;13.70;99.90;;;14.01;81.97;101313.59;5006078;28;20502;-71
2022/05/17 05:45:32;;;;;;;7.00;5.77;;;13.80;99.90;;;13.96;81.43;101324.28;5006496;28;20845;-69
2022/05/17 05:48:01;;;;;;;9.63;4.93;;;13.80;99.90;;;14.02;80.14;101341.66;5005214;28;20445;-69
2022/05/17 05:50:30;;;;;;;6.10;4.63;;;13.80;99.90;;;13.97;77.25;101334.13;5002921;28;20430;-69
2022/05/17 05:53:04;;;;;;;5.97;5.37;;;13.80;99.90;;;14.03;80.10;101338.72;5030734;23;20487;-72
2022/05/17 05:55:35;;;;;;;6.10;4.97;;;13.80;99.90;;;14.02;80.56;101344.38;5028825;28;20466;-70
2022/05/17 05:58:05;;;;;;;12.43;6.07;;;13.80;99.90;;;13.99;82.00;101336.66;5029541;28;20431;-71
2022/05/17 06:00:36;;;;;;;15.50;5.90;;;13.80;99.90;;;14.02;81.96;101347.09;5029918;28;20440;-71
2022/05/17 06:03:05;;;;;;;9.07;7.00;;;13.80;99.90;;;14.10;81.11;101344.97;5029640;28;20926;-71
2022/05/17 06:05:36;;;;;;;8.40;7.60;;;13.90;99.90;;;14.17;81.25;101342.25;5029639;28;21071;-72
2022/05/17 06:08:06;;;;;;;10.10;6.90;;;13.90;99.90;;;14.27;79.52;101339.91;5029202;28;20424;-71
2022/05/17 06:10:35;;;;;;;10.30;7.37;;;14.00;99.90;;;14.23;78.79;101353.09;5029781;28;20501;-70
2022/05/17 06:13:04;;;;;;;8.47;5.83;;;14.00;99.90;;;14.39;77.60;101342.78;5028836;28;20436;-72
2022/05/17 06:15:33;;;;;;;6.47;5.67;;;14.00;99.90;;;14.32;76.38;101353.69;5029959;28;20482;-69
2022/05/17 06:18:04;;;;;;;7.33;5.27;;;14.00;99.90;;;14.31;77.01;101361.03;5027559;28;20479;-72
2022/05/17 06:20:33;;;;;;;8.20;5.80;;;14.00;99.90;;;14.61;74.71;101342.28;5027702;28;20478;-71
2022/05/17 06:23:02;;;;;;;7.07;5.00;;;14.10;99.90;;;14.76;73.84;101352.88;5027618;28;20424;-71
2022/05/17 06:25:32;;;;;;;7.50;4.50;;;14.20;99.90;;;14.95;71.21;101349.22;5029868;28;20424;-71
2022/05/17 06:28:02;;;;;;;6.53;5.17;;;14.40;99.90;;;14.91;72.29;101364.31;5031622;28;20427;-72
2022/05/17 06:30:31;;;;;;;6.00;4.50;;;14.50;99.90;;;14.94;70.81;101365.78;5030698;28;20981;-71
2022/05/17 06:33:01;;;;;;;12.30;6.80;;;14.60;99.90;;;15.02;72.38;101377.22;5029749;28;20689;-72
2022/05/17 06:35:32;;;;;;;18.50;17.13;;;14.70;99.90;;;14.88;73.25;101370.19;5046328;28;20440;-70
2022/05/17 06:38:02;;;;;;;8.33;6.90;;;14.60;99.90;;;15.09;72.48;101375.31;5031995;28;20497;-71
2022/05/17 06:40:31;;;;;;;6.73;5.87;;;14.70;99.90;;;15.10;72.78;101368.78;5034241;28;20566;-71
2022/05/17 06:43:00;;;;;;;6.60;4.37;;;14.80;99.90;;;15.03;70.88;101372.63;5034669;28;20515;-72
2022/05/17 06:45:30;;;;;;;5.13;4.27;;;14.80;99.90;;;15.09;71.43;101375.31;5034828;28;20418;-71
2022/05/17 06:48:00;;;;;;;8.57;4.93;;;14.80;99.90;;;15.08;70.99;101376.38;5035428;28;20434;-72
2022/05/17 06:50:31;;;;;;;7.17;4.87;;;14.80;99.90;;;15.25;69.52;101357.56;5034894;28;20476;-71
2022/05/17 06:53:03;;;;;;;5.20;4.37;;;14.90;99.90;;;15.41;70.91;101369.81;5034671;28;20448;-70
2022/05/17 06:55:32;;;;;;;4.70;3.73;;;15.00;99.90;;;15.82;68.05;101361.94;5035283;28;20838;-71
2022/05/17 06:58:02;;;;;;;5.73;3.80;;;15.30;99.90;;;15.96;71.85;101363.47;5034733;28;20430;-70
2022/05/17 07:00:32;;;;;;;5.17;4.67;;;15.40;99.90;;;16.10;70.85;101364.16;5033318;28;20972;-71
2022/05/17 07:03:02;;;;;;;6.40;3.47;;;15.50;99.90;;;16.47;70.45;101371.25;5033856;28;20902;-71
2022/05/17 07:05:32;;;;;;;7.63;4.00;;;15.80;99.90;;;16.38;69.13;101371.78;5034275;28;20424;-71
2022/05/17 07:08:03;;;;;;;5.27;4.50;;;15.70;99.90;;;16.28;69.78;101377.78;5034193;28;20420;-71
2022/05/17 07:13:18;;;;;;;6.50;4.13;;;15.80;99.90;;;16.98;64.14;101386.38;5034327;28;20415;-71
2022/05/17 07:15:50;;;;;;;8.00;4.80;;;16.20;99.90;;;17.13;64.28;101385.94;5034447;28;20534;-70
2022/05/17 07:18:23;;;;;;;6.23;4.90;;;16.30;99.90;;;17.42;62.55;101385.06;5035799;28;20454;-70
2022/05/17 07:20:52;;;;;;;7.70;5.43;;;16.60;99.90;;;17.57;62.25;101387.34;5036414;28;20446;-72
2022/05/17 07:23:24;;;;;;;8.10;5.80;;;16.60;99.90;;;17.60;63.36;101387.72;5037437;28;20403;-70
2022/05/17 07:25:55;;;;;;;10.83;5.93;;;16.80;99.90;;;18.12;62.28;101393.31;5039040;28;20447;-72
2022/05/17 07:28:25;;;;;;;8.90;5.77;;;17.20;99.90;;;18.43;61.73;101392.91;5037724;28;20484;-70
2022/05/17 07:30:54;;;;;;;8.60;5.80;;;17.60;99.90;;;18.21;61.59;101389.13;5035514;28;20448;-70
2022/05/17 07:33:23;;;;;;;9.37;5.50;;;17.70;99.90;;;18.43;60.56;101392.09;5033925;28;20803;-71
2022/05/17 07:35:53;;;;;;;9.50;6.57;;;17.80;99.90;;;18.44;60.57;101404.72;5033807;28;20498;-69
2022/05/17 07:38:24;;;;;;;9.50;5.13;;;17.80;99.90;;;18.59;60.53;101411.34;5033869;28;20436;-71
2022/05/17 07:40:53;;;;;;;10.03;5.93;;;17.90;99.90;;;18.74;61.75;101437.41;5033275;28;20769;-70
2022/05/17 07:43:22;;;;;;;11.27;6.30;;;18.20;99.90;;;18.34;63.37;101430.00;5033528;28;20402;-71
2022/05/17 07:45:52;;;;;;;6.37;5.60;;;18.00;99.90;;;18.55;63.25;101423.88;5033253;28;20428;-71
2022/05/17 07:48:25;;;;;;;8.83;7.93;;;18.10;99.90;;;18.73;64.23;101438.53;5033726;28;20433;-70
2022/05/17 07:50:54;;;;;;;14.00;5.90;;;18.20;99.90;;;18.33;65.60;101443.91;5033283;28;20419;-72
2022/05/17 07:53:25;;;;;;;11.90;6.53;;;17.90;99.90;;;18.50;63.79;101442.94;5033403;28;20410;-70
2022/05/17 07:55:53;;;;;;;8.50;6.60;;;17.90;99.90;;;18.75;64.32;101444.56;5033611;28;20403;-69
2022/05/17 07:58:24;;;;;;;7.57;6.43;;;18.20;99.90;;;18.90;63.71;101447.63;5033365;28;20424;-71
2022/05/17 08:00:54;;;;;;;15.10;5.60;;;18.10;99.90;;;19.13;63.25;101441.22;5033116;28;20442;-70
2022/05/17 08:03:24;;;;;;;10.83;5.90;;;18.50;99.90;;;18.87;62.15;101448.13;5033234;28;20494;-71
2022/05/17 08:05:59;;;;;;;7.53;5.17;;;18.40;99.90;;;19.00;62.70;101448.66;5033262;28;20424;-71
2022/05/17 08:08:29;;;;;;;7.17;5.53;;;18.40;99.90;;;19.16;61.14;101449.81;5033368;28;20494;-73
2022/05/17 08:10:58;;;;;;;9.53;5.73;;;18.60;99.90;;;19.04;61.44;101451.75;5033307;28;20440;-69
2022/05/17 08:13:27;;;;;;;10.20;5.53;;;18.60;99.90;;;19.06;60.64;101450.44;5033584;28;20462;-73
2022/05/17 08:15:57;;;;;;;6.97;5.63;;;18.50;99.90;;;19.31;61.88;101449.25;5033718;28;20428;-69
2022/05/17 08:18:26;;;;;;;8.57;5.90;;;18.70;99.90;;;19.37;61.29;101454.56;5033020;28;20424;-71
2022/05/17 08:20:54;;;;;;;7.70;5.93;;;18.70;99.90;;;19.33;60.65;101452.56;5032727;28;20497;-71
2022/05/17 08:23:28;;;;;;;7.30;6.17;;;18.80;99.90;;;19.36;59.67;101452.94;5032961;28;20395;-69
2022/05/17 08:28:43;;;;;;;7.87;5.60;;;18.60;99.90;;;19.60;59.04;101455.56;5032946;28;20430;-71
2022/05/17 08:31:12;;;;;;;8.13;5.17;;;18.90;99.90;;;19.61;58.24;101451.72;5032655;28;20437;-70
2022/05/17 08:33:40;;;;;;;11.00;6.30;;;18.90;99.90;;;19.59;60.21;101445.66;5032895;28;20413;-71
2022/05/17 08:36:12;;;;;;;6.80;5.10;;;18.90;99.90;;;19.63;58.23;101457.81;5047827;28;20422;-71
2022/05/17 08:38:46;;;;;;;5.27;4.60;;;19.00;99.90;;;19.85;57.64;101456.81;5032794;28;20897;-70
2022/05/17 08:41:41;;;;;;;6.70;4.60;;;19.20;99.90;;;19.61;59.14;101460.78;5032567;28;20443;-70
2022/05/17 08:44:14;;;;;;;6.73;6.03;;;19.30;99.90;;;19.48;59.75;101461.13;5032956;28;20493;-69
2022/05/17 08:47:06;;;;;;;8.93;5.30;;;19.20;99.90;;;19.85;59.68;101465.03;5048090;28;20834;-70
2022/05/17 08:50:00;;;;;;;7.13;4.93;;;19.30;99.90;;;19.98;59.94;101461.16;5033789;28;20418;-71
2022/05/17 08:52:37;;;;;;;6.17;5.20;;;19.20;99.90;;;20.26;59.03;101469.28;5035587;28;20478;-70
2022/05/17 08:55:25;;;;;;;7.87;5.10;;;19.40;99.90;;;20.49;58.62;101473.75;5034076;28;20432;-73
2022/05/17 08:58:00;;;;;;;7.27;5.20;;;19.70;99.90;;;20.16;59.62;101474.59;5036204;28;20430;-72
2022/05/17 09:00:39;;;;;;;5.40;4.63;;;19.60;99.90;;;20.24;60.54;101478.84;5034034;28;20473;-70
2022/05/17 09:03:36;;;;;;;6.33;5.20;;;19.60;99.90;;;19.90;59.94;101470.63;5033792;28;20511;-70
2022/05/17 09:06:15;;;;;;;6.20;5.60;;;19.70;99.90;;;19.83;61.38;101474.63;5034244;28;20604;-72
2022/05/17 09:08:55;;;;;;;6.77;5.47;;;19.30;99.90;;;19.92;62.04;101479.47;5035040;28;20487;-71
2022/05/17 09:11:34;;;;;;;9.40;6.10;;;19.30;99.90;;;19.69;61.51;101476.88;5034562;28;20452;-70
2022/05/17 09:14:12;;;;;;;6.77;5.20;;;19.10;99.90;;;20.16;60.71;101474.59;5033689;28;21003;-72
2022/05/17 09:16:46;;;;;;;6.63;5.50;;;19.30;99.90;;;20.42;60.29;101480.53;5032805;28;20425;-73
2022/05/17 09:19:16;;;;;;;5.93;5.33;;;19.50;99.90;;;20.72;59.40;101489.19;5032766;28;20511;-72
2022/05/17 09:21:48;;;;;;;7.67;6.17;;;19.70;99.90;;;20.52;59.09;101483.41;5047875;28;20887;-72
2022/05/17 09:24:21;;;;;;;6.97;5.60;;;19.90;99.90;;;20.56;59.09;101484.56;5033076;28;20425;-71
2022/05/17 09:27:01;;;;;;;6.27;5.37;;;19.90;99.90;;;20.80;59.52;101495.06;5032493;28;20420;-70
2022/05/17 09:29:39;;;;;;;8.10;5.80;;;20.00;99.90;;;20.84;57.64;101498.13;5032788;28;20428;-70
2022/05/17 09:32:11;;;;;;;7.00;6.00;;;20.30;99.90;;;21.14;58.35;101492.22;5032890;28;20422;-72
2022/05/17 09:34:44;;;;;;;7.87;5.77;;;20.30;99.90;;;21.35;57.06;101490.53;5035763;28;20401;-72
2022/05/17 09:37:18;;;;;;;6.20;4.90;;;20.60;99.90;;;21.39;56.87;101497.16;5034142;28;20429;-71
2022/05/17 09:39:51;;;;;;;8.37;6.83;;;20.70;99.90;;;21.42;56.15;101504.91;5033752;28;20422;-70
2022/05/17 09:42:28;;;;;;;6.57;5.43;;;21.00;99.90;;;21.63;56.05;101498.53;5032390;28;20399;-70
2022/05/17 09:45:02;;;;;;;7.90;5.47;;;20.90;99.90;;;21.58;55.56;101498.47;5032432;28;20930;-72
2022/05/17 09:47:41;;;;;;;7.17;5.70;;;20.90;99.90;;;21.33;54.82;101507.28;5031584;28;20414;-70
2022/05/17 09:53:04;;;;;;;7.33;5.33;;;20.60;99.90;;;21.64;54.64;101505.66;5032124;28;20494;-71
2022/05/17 09:55:35;;;;;;;5.40;4.93;;;20.90;99.90;;;21.46;52.97;101506.03;5031875;28;20426;-71
2022/05/17 09:58:11;;;;;;;5.17;4.67;;;21.10;99.90;;;21.10;54.44;101508.38;5031925;28;20434;-70
2022/05/17 10:00:51;;;;;;;7.00;4.90;;;21.00;99.90;;;21.36;54.62;101511.44;5032209;28;20452;-71
2022/05/17 10:03:35;;;;;;;5.27;4.20;;;20.90;99.90;;;21.89;52.71;101505.06;5032044;28;20532;-71
2022/05/17 10:06:07;;;;;;;6.33;5.33;;;21.20;99.90;;;22.05;52.85;101504.97;5031835;28;20451;-71
2022/05/17 10:08:46;;;;;;;7.07;6.40;;;21.40;99.90;;;21.80;52.66;101503.88;5031808;28;20403;-70
2022/05/17 10:11:23;;;;;;;7.87;5.23;;;21.50;99.90;;;21.90;51.85;101501.22;5031364;28;20418;-69
2022/05/17 10:14:09;;;;;;;6.60;5.43;;;21.50;99.90;;;22.12;51.56;101501.16;5032362;28;20414;-71
2022/05/17 10:16:46;;;;;;;6.17;5.20;;;21.70;99.90;;;22.38;50.01;101492.78;5031895;28;20801;-71
2022/05/17 10:19:30;;;;;;;5.80;4.47;;;21.70;99.90;;;22.08;50.08;101503.59;5046922;28;20426;-71
2022/05/17 10:22:09;;;;;;;7.00;5.60;;;21.70;99.90;;;21.83;50.52;101500.63;5031859;28;20472;-72
2022/05/17 10:24:48;;;;;;;6.73;4.90;;;21.50;99.90;;;22.50;49.45;101496.19;5031467;28;20842;-70
2022/05/17 10:27:26;;;;;;;4.47;4.07;;;21.80;99.90;;;22.47;46.75;101499.47;5031244;28;20428;-70
2022/05/17 10:30:02;;;;;;;4.80;3.87;;;22.00;99.90;;;22.37;46.43;101496.66;5032148;28;20407;-71
2022/05/17 10:32:39;;;;;;;5.53;4.37;;;22.10;99.90;;;22.45;46.29;101500.84;5047509;28;20505;-72
2022/05/17 10:35:17;;;;;;;5.33;4.73;;;22.00;99.90;;;22.46;46.53;101499.75;5032935;28;20424;-70
2022/05/17 10:37:54;;;;;;;5.40;4.83;;;22.00;99.90;;;22.28;46.67;101508.44;5032056;28;20398;-72
2022/05/17 10:40:31;;;;;;;6.53;3.70;;;21.90;99.90;;;22.21;47.71;101502.34;5032071;28;20454;-71
2022/05/17 10:43:02;;;;;;;5.40;4.70;;;21.90;99.90;;;21.78;48.53;101498.66;5031420;28;20423;-71